createdAt,value
2022-12-03T00:02:15.343Z,70.38
2022-12-03T00:04:41.921Z,71.51
2022-12-03T00:07:08.304Z,71.23
2022-12-03T00:09:34.995Z,71.17
2022-12-03T00:12:01.472Z,70.97
2022-12-03T00:14:27.955Z,70.88
2022-12-03T00:16:54.301Z,70.43
2022-12-03T00:19:21.029Z,69.95
2022-12-03T00:21:47.361Z,69.94
2022-12-03T00:24:13.829Z,70.63
2022-12-03T00:26:40.222Z,70.36
2022-12-03T00:29:07.070Z,70.22
2022-12-03T00:31:33.495Z,69.65
2022-12-03T00:33:59.883Z,70.14
2022-12-03T00:36:27.551Z,69.60
2022-12-03T00:38:53.942Z,70.31
2022-12-03T00:41:20.375Z,70.35
2022-12-03T00:43:46.720Z,69.84
2022-12-03T00:46:15.790Z,69.61
2022-12-03T00:48:46.135Z,70.25
2022-12-03T00:51:13.069Z,69.73
2022-12-03T00:53:39.552Z,69.42
2022-12-03T00:56:06.437Z,69.74
2022-12-03T00:58:32.987Z,69.81
2022-12-03T01:00:59.363Z,68.99
2022-12-03T01:03:25.779Z,69.22
2022-12-03T01:05:52.137Z,69.85
2022-12-03T01:08:18.618Z,69.26
2022-12-03T01:10:44.953Z,69.04
2022-12-03T01:13:11.476Z,69.70
2022-12-03T01:15:37.865Z,69.65
2022-12-03T01:18:04.375Z,69.21
2022-12-03T01:20:30.730Z,69.57
2022-12-03T01:22:57.124Z,69.55
2022-12-03T01:25:23.582Z,69.63
2022-12-03T01:27:50.409Z,69.69
2022-12-03T01:30:16.750Z,68.82
2022-12-03T01:32:43.166Z,69.45
2022-12-03T01:35:09.705Z,69.03
2022-12-03T01:37:36.036Z,69.49
2022-12-03T01:40:02.672Z,69.32
2022-12-03T01:42:34.872Z,68.63
2022-12-03T01:45:02.810Z,68.18
2022-12-03T01:47:33.403Z,68.46
2022-12-03T01:50:07.020Z,67.98
2022-12-03T01:52:38.385Z,68.73
2022-12-03T01:55:11.498Z,68.54
2022-12-03T01:57:45.883Z,68.12
2022-12-03T02:00:24.809Z,68.55
2022-12-03T02:02:54.943Z,68.30
2022-12-03T02:05:26.077Z,68.99
2022-12-03T02:07:53.164Z,68.75
2022-12-03T02:10:26.017Z,68.90
2022-12-03T02:12:59.531Z,68.67
2022-12-03T02:15:26.159Z,67.88
2022-12-03T02:17:53.232Z,67.73
2022-12-03T02:20:19.932Z,67.76
2022-12-03T02:23:10.670Z,68.12
2022-12-03T02:25:37.895Z,67.83
2022-12-03T02:28:06.081Z,68.37
2022-12-03T02:30:32.991Z,68.03
2022-12-03T02:33:00.099Z,67.83
2022-12-03T02:35:32.676Z,68.58
2022-12-03T02:38:13.772Z,67.68
2022-12-03T02:40:41.902Z,67.52
2022-12-03T02:43:09.575Z,67.49
2022-12-03T02:45:39.490Z,68.05
2022-12-03T02:48:09.315Z,67.30
2022-12-03T02:50:45.986Z,67.55
2022-12-03T02:53:17.285Z,67.87
2022-12-03T02:55:44.261Z,67.16
2022-12-03T02:58:11.379Z,67.31
2022-12-03T03:00:39.013Z,67.98
2022-12-03T03:03:08.058Z,67.01
2022-12-03T03:05:37.767Z,67.07
2022-12-03T03:08:05.313Z,67.99
2022-12-03T03:10:34.228Z,67.69
2022-12-03T03:13:03.703Z,67.38
2022-12-03T03:15:30.286Z,67.15
2022-12-03T03:17:57.574Z,67.14
2022-12-03T03:20:23.955Z,67.12
2022-12-03T03:22:50.287Z,68.24
2022-12-03T03:25:21.000Z,67.57
2022-12-03T03:27:47.667Z,67.97
2022-12-03T03:30:16.930Z,67.36
2022-12-03T03:32:43.343Z,67.18
2022-12-03T03:35:11.470Z,67.93
2022-12-03T03:37:38.323Z,67.38
2022-12-03T03:40:05.274Z,67.74
2022-12-03T03:42:31.728Z,67.84
2022-12-03T03:44:58.339Z,67.64
2022-12-03T03:47:25.640Z,67.02
2022-12-03T03:49:52.949Z,68.25
2022-12-03T03:52:19.619Z,68.00
2022-12-03T03:54:46.956Z,68.11
2022-12-03T03:57:13.401Z,68.16
2022-12-03T03:59:39.778Z,67.58
2022-12-03T04:02:06.761Z,66.93
2022-12-03T04:04:36.601Z,67.07
2022-12-03T04:07:03.215Z,67.88
2022-12-03T04:09:29.570Z,66.93
2022-12-03T04:12:15.425Z,66.86
2022-12-03T04:14:41.777Z,66.91
2022-12-03T04:17:08.133Z,67.58
2022-12-03T04:19:35.199Z,67.98
2022-12-03T04:22:20.516Z,67.43
2022-12-03T04:24:46.927Z,67.79
2022-12-03T04:27:31.821Z,67.17
2022-12-03T04:29:58.259Z,67.01
2022-12-03T04:32:43.120Z,67.76
2022-12-03T04:35:28.541Z,67.26
2022-12-03T04:37:55.133Z,67.09
2022-12-03T04:40:40.249Z,68.33
2022-12-03T04:43:06.901Z,67.27
2022-12-03T04:45:33.303Z,67.86
2022-12-03T04:47:59.779Z,67.35
2022-12-03T04:50:26.232Z,68.20
2022-12-03T04:52:52.607Z,67.16
2022-12-03T04:55:18.976Z,67.53
2022-12-03T04:57:45.366Z,66.96
2022-12-03T05:00:12.364Z,67.03
2022-12-03T05:02:38.963Z,67.58
2022-12-03T05:05:05.884Z,66.74
2022-12-03T05:07:32.316Z,66.88
2022-12-03T05:09:58.685Z,66.85
2022-12-03T05:12:25.079Z,66.41
2022-12-03T05:14:51.816Z,66.38
2022-12-03T05:17:18.480Z,66.61
2022-12-03T05:20:03.307Z,67.09
2022-12-03T05:22:29.789Z,66.41
2022-12-03T05:24:56.563Z,66.89
2022-12-03T05:27:24.190Z,67.41
2022-12-03T05:29:51.163Z,67.07
2022-12-03T05:32:17.628Z,66.28
2022-12-03T05:34:44.086Z,67.44
2022-12-03T05:37:10.859Z,67.09
2022-12-03T05:39:37.579Z,67.31
2022-12-03T05:42:23.018Z,66.39
2022-12-03T05:44:49.737Z,66.66
2022-12-03T05:47:16.163Z,67.03
2022-12-03T05:49:42.546Z,66.06
2022-12-03T05:52:10.310Z,66.92
2022-12-03T05:54:36.644Z,66.97
2022-12-03T05:57:03.317Z,65.75
2022-12-03T05:59:29.757Z,65.94
2022-12-03T06:01:56.237Z,66.87
2022-12-03T06:04:22.620Z,66.09
2022-12-03T06:06:49.717Z,65.82
2022-12-03T06:09:16.166Z,66.81
2022-12-03T06:11:42.616Z,66.17
2022-12-03T06:14:09.087Z,66.17
2022-12-03T06:16:35.668Z,66.48
2022-12-03T06:19:02.048Z,66.43
2022-12-03T06:21:28.514Z,66.28
2022-12-03T06:23:54.902Z,65.56
2022-12-03T06:26:21.499Z,66.52
2022-12-03T06:28:49.266Z,66.28
2022-12-03T06:31:15.672Z,65.39
2022-12-03T06:33:42.153Z,66.40
2022-12-03T06:36:08.703Z,65.59
2022-12-03T06:38:35.041Z,65.60
2022-12-03T06:41:02.210Z,65.53
2022-12-03T06:43:28.578Z,65.79
2022-12-03T06:45:55.062Z,65.38
2022-12-03T06:48:21.404Z,65.57
2022-12-03T06:50:47.888Z,65.91
2022-12-03T06:53:14.263Z,64.98
2022-12-03T06:55:40.609Z,65.59
2022-12-03T06:58:07.114Z,65.14
2022-12-03T07:00:34.345Z,65.20
2022-12-03T07:03:01.073Z,65.54
2022-12-03T07:05:27.752Z,65.51
2022-12-03T07:07:55.257Z,65.06
2022-12-03T07:10:21.893Z,65.81
2022-12-03T07:12:48.324Z,65.91
2022-12-03T07:15:14.721Z,65.31
2022-12-03T07:17:41.065Z,64.92
2022-12-03T07:20:08.041Z,65.09
2022-12-03T07:22:34.504Z,65.12
2022-12-03T07:25:00.991Z,65.27
2022-12-03T07:27:27.348Z,65.25
2022-12-03T07:29:53.797Z,65.27
2022-12-03T07:32:20.143Z,65.79
2022-12-03T07:34:46.562Z,65.25
2022-12-03T07:37:13.403Z,65.32
2022-12-03T07:39:40.485Z,65.55
2022-12-03T07:42:09.175Z,65.23
2022-12-03T07:44:35.669Z,65.01
2022-12-03T07:47:02.315Z,65.59
2022-12-03T07:49:28.740Z,65.57
2022-12-03T07:51:56.747Z,65.29
2022-12-03T07:54:24.181Z,65.66
2022-12-03T07:56:50.613Z,64.43
2022-12-03T07:59:17.565Z,65.35
2022-12-03T08:01:44.370Z,64.73
2022-12-03T08:04:12.768Z,65.58
2022-12-03T08:06:39.227Z,65.26
2022-12-03T08:09:05.586Z,64.98
2022-12-03T08:11:35.850Z,64.66
2022-12-03T08:14:10.563Z,64.78
2022-12-03T08:16:39.532Z,64.76
2022-12-03T08:19:10.742Z,64.56
2022-12-03T08:21:37.657Z,65.16
2022-12-03T08:24:21.354Z,64.78
2022-12-03T08:26:48.982Z,63.99
2022-12-03T08:29:18.022Z,64.63
2022-12-03T08:31:49.844Z,64.52
2022-12-03T08:34:27.308Z,64.38
2022-12-03T08:37:01.359Z,63.87
2022-12-03T08:39:37.731Z,64.55
2022-12-03T08:42:32.024Z,63.77
2022-12-03T08:45:40.517Z,63.61
2022-12-03T08:48:24.200Z,64.15
2022-12-03T08:50:50.588Z,64.01
2022-12-03T08:53:32.984Z,63.63
2022-12-03T08:56:05.499Z,63.87
2022-12-03T08:58:43.692Z,63.15
2022-12-03T09:01:10.057Z,63.78
2022-12-03T09:03:38.440Z,63.90
2022-12-03T09:06:05.603Z,63.61
2022-12-03T09:08:32.028Z,62.86
2022-12-03T09:10:58.409Z,63.11
2022-12-03T09:13:24.854Z,63.86
2022-12-03T09:15:51.223Z,62.98
2022-12-03T09:18:17.663Z,63.50
2022-12-03T09:20:44.149Z,62.73
2022-12-03T09:23:10.701Z,62.72
2022-12-03T09:25:37.131Z,62.03
2022-12-03T09:28:03.906Z,61.98
2022-12-03T09:30:30.309Z,62.57
2022-12-03T09:32:56.752Z,61.55
2022-12-03T09:35:23.475Z,62.09
2022-12-03T09:37:49.815Z,61.76
2022-12-03T09:40:16.257Z,62.28
2022-12-03T09:42:42.779Z,62.26
2022-12-03T09:45:12.146Z,62.82
2022-12-03T09:47:45.143Z,62.22
2022-12-03T09:50:19.138Z,62.62
2022-12-03T09:52:46.835Z,62.90
2022-12-03T09:55:17.038Z,62.01
2022-12-03T09:57:43.825Z,62.92
2022-12-03T10:00:30.289Z,62.20
2022-12-03T10:03:01.244Z,62.03
2022-12-03T10:05:28.637Z,61.92
2022-12-03T10:08:03.142Z,62.22
2022-12-03T10:10:29.669Z,61.31
2022-12-03T10:12:56.208Z,61.84
2022-12-03T10:15:23.874Z,61.86
2022-12-03T10:17:53.176Z,62.06
2022-12-03T10:20:21.757Z,62.13
2022-12-03T10:22:48.775Z,62.02
2022-12-03T10:25:24.338Z,61.85
2022-12-03T10:28:01.108Z,62.69
2022-12-03T10:30:28.999Z,62.43
2022-12-03T10:32:57.952Z,62.34
2022-12-03T10:35:26.164Z,62.37
2022-12-03T10:38:07.279Z,62.08
2022-12-03T10:40:37.569Z,61.94
2022-12-03T10:43:18.900Z,62.31
2022-12-03T10:45:49.569Z,62.11
2022-12-03T10:48:17.362Z,62.50
2022-12-03T10:51:02.353Z,62.97
2022-12-03T10:53:31.494Z,62.70
2022-12-03T10:56:01.733Z,62.03
2022-12-03T10:58:30.977Z,62.67
2022-12-03T11:00:59.182Z,62.24
2022-12-03T11:03:30.695Z,62.40
2022-12-03T11:06:00.091Z,62.24
2022-12-03T11:08:34.959Z,62.31
2022-12-03T11:11:16.981Z,61.92
2022-12-03T11:13:47.563Z,61.93
2022-12-03T11:16:34.594Z,62.86
2022-12-03T11:19:02.153Z,62.44
2022-12-03T11:21:31.718Z,62.33
2022-12-03T11:24:18.872Z,62.30
2022-12-03T11:26:45.167Z,63.07
2022-12-03T11:29:14.661Z,63.01
2022-12-03T11:31:46.602Z,62.67
2022-12-03T11:34:18.825Z,62.82
2022-12-03T11:37:13.320Z,62.36
2022-12-03T11:39:52.387Z,62.34
2022-12-03T11:42:28.337Z,61.90
2022-12-03T11:45:03.832Z,62.23
2022-12-03T11:47:31.424Z,62.82
2022-12-03T11:49:58.032Z,62.33
2022-12-03T11:52:31.405Z,62.35
2022-12-03T11:55:04.164Z,62.55
2022-12-03T11:57:34.716Z,62.22
2022-12-03T12:00:06.959Z,62.48
2022-12-03T12:02:38.686Z,63.00
2022-12-03T12:05:34.796Z,62.35
2022-12-03T12:08:02.769Z,63.09
2022-12-03T12:10:49.027Z,62.97
2022-12-03T12:13:30.793Z,62.48
2022-12-03T12:16:01.691Z,62.17
2022-12-03T12:18:37.120Z,63.16
2022-12-03T12:21:42.033Z,63.24
2022-12-03T12:24:47.471Z,63.27
2022-12-03T12:27:33.310Z,62.91
2022-12-03T12:30:14.126Z,63.31
2022-12-03T12:32:40.930Z,62.86
2022-12-03T12:35:15.738Z,62.20
2022-12-03T12:37:59.770Z,63.45
2022-12-03T12:40:29.916Z,63.06
2022-12-03T12:42:59.493Z,62.97
2022-12-03T12:45:29.097Z,63.17
2022-12-03T12:48:14.756Z,63.33
2022-12-03T12:50:44.220Z,62.94
2022-12-03T12:53:10.502Z,62.56
2022-12-03T12:55:38.389Z,63.46
2022-12-03T12:58:16.943Z,63.43
2022-12-03T13:00:48.841Z,63.29
2022-12-03T13:03:17.559Z,62.87
2022-12-03T13:05:46.903Z,62.81
2022-12-03T13:08:24.427Z,63.10
2022-12-03T13:10:53.692Z,62.72
2022-12-03T13:13:24.721Z,63.69
2022-12-03T13:16:17.813Z,63.71
2022-12-03T13:18:55.151Z,63.78
2022-12-03T13:21:33.465Z,62.81
2022-12-03T13:24:00.839Z,63.06
2022-12-03T13:26:39.611Z,63.47
2022-12-03T13:29:18.243Z,63.21
2022-12-03T13:31:54.420Z,63.48
2022-12-03T13:34:27.722Z,62.63
2022-12-03T13:36:58.063Z,63.69
2022-12-03T13:39:35.057Z,63.09
2022-12-03T13:42:37.007Z,63.62
2022-12-03T13:45:06.724Z,63.71
2022-12-03T13:47:33.062Z,63.68
2022-12-03T13:50:04.258Z,63.92
2022-12-03T13:52:32.573Z,62.77
2022-12-03T13:54:59.002Z,63.37
2022-12-03T13:57:25.340Z,63.91
2022-12-03T13:59:52.271Z,63.54
2022-12-03T14:02:18.974Z,64.00
2022-12-03T14:04:45.528Z,63.41
2022-12-03T14:07:12.086Z,63.23
2022-12-03T14:09:38.492Z,62.88
2022-12-03T14:12:23.811Z,63.04
2022-12-03T14:14:50.151Z,63.18
2022-12-03T14:17:16.608Z,64.14
2022-12-03T14:19:43.520Z,63.68
2022-12-03T14:22:09.993Z,62.87
2022-12-03T14:24:37.317Z,62.92
2022-12-03T14:27:03.852Z,63.70
2022-12-03T14:29:30.336Z,62.96
2022-12-03T14:31:56.806Z,63.26
2022-12-03T14:34:23.342Z,63.93
2022-12-03T14:36:50.397Z,63.21
2022-12-03T14:39:16.855Z,63.86
2022-12-03T14:42:01.697Z,63.81
2022-12-03T14:44:28.143Z,63.03
2022-12-03T14:46:57.302Z,63.04
2022-12-03T14:49:24.396Z,63.05
2022-12-03T14:51:50.788Z,63.35
2022-12-03T14:54:17.125Z,63.10
2022-12-03T14:56:43.576Z,63.25
2022-12-03T14:59:10.001Z,64.35
2022-12-03T15:01:36.353Z,63.29
2022-12-03T15:04:02.890Z,63.95
2022-12-03T15:06:29.243Z,63.92
2022-12-03T15:08:55.604Z,63.22
2022-12-03T15:11:22.122Z,63.66
2022-12-03T15:13:48.662Z,63.42
2022-12-03T15:16:15.414Z,63.41
2022-12-03T15:18:41.885Z,63.79
2022-12-03T15:21:08.249Z,64.09
2022-12-03T15:23:34.665Z,64.46
2022-12-03T15:26:01.021Z,64.26
2022-12-03T15:28:27.625Z,64.54
2022-12-03T15:30:54.045Z,64.54
2022-12-03T15:33:20.493Z,63.55
2022-12-03T15:35:46.879Z,64.17
2022-12-03T15:38:13.464Z,64.06
2022-12-03T15:40:39.959Z,64.64
2022-12-03T15:43:07.779Z,64.16
2022-12-03T15:45:34.406Z,64.86
2022-12-03T15:48:01.425Z,64.84
2022-12-03T15:50:28.389Z,63.78
2022-12-03T15:52:54.844Z,64.14
2022-12-03T15:55:21.781Z,64.33
2022-12-03T15:57:49.179Z,63.63
2022-12-03T16:00:16.990Z,63.92
2022-12-03T16:02:49.104Z,63.77
2022-12-03T16:05:18.873Z,64.44
2022-12-03T16:07:45.372Z,64.20
2022-12-03T16:10:12.059Z,64.33
2022-12-03T16:12:38.432Z,64.35
2022-12-03T16:15:05.621Z,63.41
2022-12-03T16:17:32.166Z,63.66
2022-12-03T16:19:58.492Z,63.26
2022-12-03T16:22:25.153Z,64.03
2022-12-03T16:24:51.589Z,63.15
2022-12-03T16:27:22.749Z,64.11
2022-12-03T16:29:52.094Z,64.11
2022-12-03T16:32:18.703Z,64.22
2022-12-03T16:34:45.085Z,63.98
2022-12-03T16:37:11.636Z,63.84
2022-12-03T16:39:46.769Z,64.32
2022-12-03T16:42:17.260Z,63.40
2022-12-03T16:45:02.699Z,63.94
2022-12-03T16:47:33.585Z,63.39
2022-12-03T16:50:01.788Z,63.33
2022-12-03T16:52:28.218Z,64.02
2022-12-03T16:54:54.587Z,64.21
2022-12-03T16:57:20.966Z,63.40
2022-12-03T16:59:47.295Z,63.26
2022-12-03T17:02:13.997Z,63.48
2022-12-03T17:04:40.592Z,63.68
2022-12-03T17:07:06.940Z,63.55
2022-12-03T17:09:33.337Z,64.05
2022-12-03T17:11:59.680Z,64.23
2022-12-03T17:14:31.451Z,63.44
2022-12-03T17:16:59.571Z,63.27
2022-12-03T17:19:26.041Z,63.84
2022-12-03T17:21:54.082Z,64.15
2022-12-03T17:24:21.354Z,64.06
2022-12-03T17:26:47.931Z,63.76
2022-12-03T17:29:14.302Z,63.43
2022-12-03T17:31:42.467Z,63.91
2022-12-03T17:34:09.703Z,64.02
2022-12-03T17:36:36.109Z,64.00
2022-12-03T17:39:02.608Z,63.71
2022-12-03T17:41:28.965Z,64.41
2022-12-03T17:43:55.333Z,64.29
2022-12-03T17:46:21.945Z,64.50
2022-12-03T17:48:48.383Z,63.47
2022-12-03T17:51:14.825Z,63.49
2022-12-03T17:53:41.263Z,64.22
2022-12-03T17:56:07.699Z,64.79
2022-12-03T17:58:34.631Z,64.44
2022-12-03T18:01:03.288Z,63.66
2022-12-03T18:03:30.314Z,63.95
2022-12-03T18:05:56.818Z,63.69
2022-12-03T18:08:23.392Z,64.11
2022-12-03T18:10:50.082Z,64.52
2022-12-03T18:13:16.524Z,63.30
2022-12-03T18:15:42.963Z,63.57
2022-12-03T18:18:09.392Z,63.33
2022-12-03T18:20:35.838Z,64.04
2022-12-03T18:23:02.473Z,63.92
2022-12-03T18:25:29.613Z,63.34
2022-12-03T18:27:56.552Z,63.85
2022-12-03T18:30:22.925Z,63.54
2022-12-03T18:32:50.654Z,64.53
2022-12-03T18:35:17.125Z,64.68
2022-12-03T18:37:43.718Z,63.90
2022-12-03T18:40:22.322Z,63.98
2022-12-03T18:42:48.778Z,63.66
2022-12-03T18:45:16.340Z,64.13
2022-12-03T18:47:43.230Z,64.63
2022-12-03T18:50:11.554Z,63.77
2022-12-03T18:52:38.035Z,64.11
2022-12-03T18:55:05.568Z,63.69
2022-12-03T18:57:32.039Z,64.00
2022-12-03T18:59:58.649Z,64.18
2022-12-03T19:03:01.363Z,63.72
2022-12-03T19:05:11.783Z,63.43
2022-12-03T19:07:38.217Z,64.15
2022-12-03T19:10:05.304Z,63.45
2022-12-03T19:12:32.754Z,64.16
2022-12-03T19:14:59.283Z,64.24
2022-12-03T19:17:27.126Z,63.75
2022-12-03T19:19:54.276Z,63.30
2022-12-03T19:22:20.967Z,64.09
2022-12-03T19:24:47.312Z,63.88
2022-12-03T19:27:14.107Z,63.00
2022-12-03T19:29:40.601Z,64.00
2022-12-03T19:32:07.253Z,63.97
2022-12-03T19:34:33.713Z,63.77
2022-12-03T19:37:00.095Z,63.92
2022-12-03T19:39:26.664Z,63.49
2022-12-03T19:41:53.029Z,63.44
2022-12-03T19:44:19.545Z,63.34
2022-12-03T19:46:45.950Z,62.95
2022-12-03T19:49:12.406Z,63.09
2022-12-03T19:51:38.787Z,63.88
2022-12-03T19:54:07.550Z,63.51
2022-12-03T19:56:35.134Z,62.83
2022-12-03T19:59:02.225Z,63.13
2022-12-03T20:01:30.850Z,63.32
2022-12-03T20:03:59.178Z,63.61
2022-12-03T20:06:28.926Z,63.38
2022-12-03T20:08:59.314Z,63.48
2022-12-03T20:11:28.727Z,63.72
2022-12-03T20:13:57.002Z,64.00
2022-12-03T20:16:24.656Z,63.43
2022-12-03T20:18:55.414Z,63.48
2022-12-03T20:21:21.788Z,62.96
2022-12-03T20:23:48.382Z,63.28
2022-12-03T20:26:18.380Z,63.71
2022-12-03T20:28:44.733Z,63.17
2022-12-03T20:31:14.376Z,63.99
2022-12-03T20:33:43.119Z,63.29
2022-12-03T20:36:11.154Z,62.97
2022-12-03T20:38:38.298Z,63.42
2022-12-03T20:41:10.301Z,63.29
2022-12-03T20:43:37.073Z,63.24
2022-12-03T20:46:07.926Z,63.07
2022-12-03T20:48:35.107Z,63.02
2022-12-03T20:51:06.190Z,62.49
2022-12-03T20:53:33.132Z,62.16
2022-12-03T20:56:01.018Z,62.86
2022-12-03T20:58:28.196Z,62.54
2022-12-03T21:00:54.738Z,62.97
2022-12-03T21:03:21.393Z,61.99
2022-12-03T21:05:47.961Z,62.71
2022-12-03T21:08:15.287Z,62.31
2022-12-03T21:10:45.271Z,63.05
2022-12-03T21:13:13.823Z,61.83
2022-12-03T21:15:40.957Z,61.85
2022-12-03T21:18:08.879Z,62.12
2022-12-03T21:20:43.165Z,61.79
2022-12-03T21:23:09.716Z,61.64
2022-12-03T21:25:37.125Z,61.94
2022-12-03T21:28:05.223Z,62.01
2022-12-03T21:30:32.381Z,61.66
2022-12-03T21:32:58.962Z,62.10
2022-12-03T21:35:25.617Z,61.58
2022-12-03T21:37:52.152Z,61.89
2022-12-03T21:40:19.226Z,62.17
2022-12-03T21:42:45.666Z,61.23
2022-12-03T21:45:12.091Z,61.89
2022-12-03T21:47:38.546Z,61.56
2022-12-03T21:50:07.225Z,61.68
2022-12-03T21:52:34.818Z,61.06
2022-12-03T21:55:01.235Z,61.28
2022-12-03T21:57:27.662Z,61.29
2022-12-03T21:59:55.369Z,60.90
2022-12-03T22:02:22.322Z,62.00
2022-12-03T22:04:50.117Z,61.88
2022-12-03T22:07:16.549Z,61.22
2022-12-03T22:09:43.112Z,61.88
2022-12-03T22:12:09.452Z,61.46
2022-12-03T22:14:35.837Z,61.83
2022-12-03T22:17:02.313Z,62.36
2022-12-03T22:19:29.360Z,61.68
2022-12-03T22:21:56.202Z,61.91
2022-12-03T22:24:23.673Z,61.86
2022-12-03T22:26:52.127Z,62.65
2022-12-03T22:29:18.590Z,62.21
2022-12-03T22:31:44.975Z,62.30
2022-12-03T22:34:11.409Z,61.96
2022-12-03T22:36:37.817Z,62.05
2022-12-03T22:39:04.787Z,62.40
2022-12-03T22:41:31.180Z,62.49
2022-12-03T22:43:57.602Z,61.74
2022-12-03T22:46:24.383Z,61.61
2022-12-03T22:48:50.945Z,62.45
2022-12-03T22:51:20.390Z,62.06
2022-12-03T22:53:47.787Z,62.62
2022-12-03T22:56:14.576Z,62.36
2022-12-03T22:58:41.329Z,62.02
2022-12-03T23:01:08.138Z,62.01
2022-12-03T23:03:34.771Z,61.88
2022-12-03T23:06:01.175Z,62.24
2022-12-03T23:08:27.678Z,62.65
2022-12-03T23:10:54.052Z,62.19
2022-12-03T23:13:20.764Z,62.58
2022-12-03T23:15:49.799Z,62.86
2022-12-03T23:18:17.333Z,62.44
2022-12-03T23:20:46.398Z,63.02
2022-12-03T23:23:13.000Z,62.56
2022-12-03T23:25:39.563Z,63.27
2022-12-03T23:28:06.487Z,63.18
2022-12-03T23:30:37.397Z,62.31
2022-12-03T23:33:04.870Z,62.85
2022-12-03T23:35:32.178Z,62.48
2022-12-03T23:37:58.793Z,62.48
2022-12-03T23:40:25.154Z,62.47
2022-12-03T23:42:51.636Z,62.61
2022-12-03T23:45:17.978Z,62.97
2022-12-03T23:47:44.330Z,62.98
2022-12-03T23:50:11.076Z,62.73
2022-12-03T23:52:37.847Z,62.36
2022-12-03T23:55:04.516Z,62.59
2022-12-03T23:57:30.967Z,62.58
2022-12-03T23:59:57.573Z,63.01
